sensor_id;sensor_type;location;lat;lon;timestamp;temperature;humidity
37322;DHT22;23697;48.684;9.032;2022-12-18T00:00:45;-3265.40;84.90
37322;DHT22;23697;48.684;9.032;2022-12-18T00:03:13;-3265.30;84.80
37322;DHT22;23697;48.684;9.032;2022-12-18T00:05:46;-3265.30;84.90
37322;DHT22;23697;48.684;9.032;2022-12-18T00:08:13;-3265.40;85.00
37322;DHT22;23697;48.684;9.032;2022-12-18T00:10:41;-3265.40;85.00
37322;DHT22;23697;48.684;9.032;2022-12-18T00:13:08;-3265.40;85.10
37322;DHT22;23697;48.684;9.032;2022-12-18T00:15:36;-3265.50;85.10
37322;DHT22;23697;48.684;9.032;2022-12-18T00:18:03;-3265.40;85.00
37322;DHT22;23697;48.684;9.032;2022-12-18T00:20:30;-3265.40;85.10
37322;DHT22;23697;48.684;9.032;2022-12-18T00:22:57;-3265.50;85.10
37322;DHT22;23697;48.684;9.032;2022-12-18T00:25:24;-3265.50;85.20
37322;DHT22;23697;48.684;9.032;2022-12-18T00:27:52;-3265.50;85.20
37322;DHT22;23697;48.684;9.032;2022-12-18T00:30:18;-3265.30;85.10
37322;DHT22;23697;48.684;9.032;2022-12-18T00:32:45;-3265.20;85.00
37322;DHT22;23697;48.684;9.032;2022-12-18T00:35:12;-3265.10;84.70
37322;DHT22;23697;48.684;9.032;2022-12-18T00:37:39;-3265.10;84.60
37322;DHT22;23697;48.684;9.032;2022-12-18T00:40:07;-3265.20;84.70
37322;DHT22;23697;48.684;9.032;2022-12-18T00:42:34;-3265.20;84.70
37322;DHT22;23697;48.684;9.032;2022-12-18T00:45:20;-3265.20;84.60
37322;DHT22;23697;48.684;9.032;2022-12-18T00:47:49;-3265.10;84.50
37322;DHT22;23697;48.684;9.032;2022-12-18T00:50:16;-3265.10;84.50
37322;DHT22;23697;48.684;9.032;2022-12-18T00:52:43;-3265.10;84.60
37322;DHT22;23697;48.684;9.032;2022-12-18T00:55:10;-3265.10;84.70
37322;DHT22;23697;48.684;9.032;2022-12-18T00:57:37;-3265.20;84.90
37322;DHT22;23697;48.684;9.032;2022-12-18T01:00:06;-3265.30;85.00
37322;DHT22;23697;48.684;9.032;2022-12-18T01:02:35;-3265.20;85.00
37322;DHT22;23697;48.684;9.032;2022-12-18T01:05:01;-3265.20;85.00
37322;DHT22;23697;48.684;9.032;2022-12-18T01:07:28;-3265.10;85.00
37322;DHT22;23697;48.684;9.032;2022-12-18T01:09:55;-3265.20;85.00
37322;DHT22;23697;48.684;9.032;2022-12-18T01:12:22;-3265.10;85.00
37322;DHT22;23697;48.684;9.032;2022-12-18T01:14:49;-3265.10;84.90
37322;DHT22;23697;48.684;9.032;2022-12-18T01:17:16;-3265.00;84.70
37322;DHT22;23697;48.684;9.032;2022-12-18T01:19:44;-3265.00;84.60
37322;DHT22;23697;48.684;9.032;2022-12-18T01:22:10;-3264.90;84.60
37322;DHT22;23697;48.684;9.032;2022-12-18T01:24:37;-3264.90;84.50
37322;DHT22;23697;48.684;9.032;2022-12-18T01:27:04;-3265.00;84.50
37322;DHT22;23697;48.684;9.032;2022-12-18T01:29:31;-3265.00;84.70
37322;DHT22;23697;48.684;9.032;2022-12-18T01:31:58;-3265.10;84.80
37322;DHT22;23697;48.684;9.032;2022-12-18T01:34:24;-3265.10;85.00
37322;DHT22;23697;48.684;9.032;2022-12-18T01:36:53;-3265.20;85.20
37322;DHT22;23697;48.684;9.032;2022-12-18T01:39:20;-3265.30;85.40
37322;DHT22;23697;48.684;9.032;2022-12-18T01:41:47;-3265.30;85.40
37322;DHT22;23697;48.684;9.032;2022-12-18T01:45:05;-3265.40;85.50
37322;DHT22;23697;48.684;9.032;2022-12-18T01:47:36;-3265.40;85.70
37322;DHT22;23697;48.684;9.032;2022-12-18T01:50:08;-3265.60;85.90
37322;DHT22;23697;48.684;9.032;2022-12-18T01:52:37;-3265.70;86.00
37322;DHT22;23697;48.684;9.032;2022-12-18T01:55:07;-3265.90;86.30
37322;DHT22;23697;48.684;9.032;2022-12-18T01:57:35;-3266.30;86.70
37322;DHT22;23697;48.684;9.032;2022-12-18T02:00:06;-3266.50;86.90
37322;DHT22;23697;48.684;9.032;2022-12-18T02:02:33;-3266.60;87.10
37322;DHT22;23697;48.684;9.032;2022-12-18T02:05:00;-3266.70;87.30
37322;DHT22;23697;48.684;9.032;2022-12-18T02:07:36;-3266.80;87.30
37322;DHT22;23697;48.684;9.032;2022-12-18T02:10:12;-3266.80;87.40
37322;DHT22;23697;48.684;9.032;2022-12-18T02:12:45;-3266.90;87.40
37322;DHT22;23697;48.684;9.032;2022-12-18T02:15:18;-3266.90;87.40
37322;DHT22;23697;48.684;9.032;2022-12-18T02:17:49;-3266.90;87.40
37322;DHT22;23697;48.684;9.032;2022-12-18T02:20:19;-3267.00;87.50
37322;DHT22;23697;48.684;9.032;2022-12-18T02:23:04;-3267.10;87.60
37322;DHT22;23697;48.684;9.032;2022-12-18T02:28:16;-3267.20;87.70
37322;DHT22;23697;48.684;9.032;2022-12-18T02:30:45;-3267.20;87.70
37322;DHT22;23697;48.684;9.032;2022-12-18T02:33:14;-3267.20;87.60
37322;DHT22;23697;48.684;9.032;2022-12-18T02:35:42;-3267.10;87.50
37322;DHT22;23697;48.684;9.032;2022-12-18T02:38:11;-3267.10;87.50
37322;DHT22;23697;48.684;9.032;2022-12-18T02:40:38;-3267.00;87.50
37322;DHT22;23697;48.684;9.032;2022-12-18T02:43:11;-3267.00;87.50
37322;DHT22;23697;48.684;9.032;2022-12-18T02:45:48;-3267.00;87.40
37322;DHT22;23697;48.684;9.032;2022-12-18T02:48:24;-3266.90;87.30
37322;DHT22;23697;48.684;9.032;2022-12-18T02:50:59;-3266.80;87.20
37322;DHT22;23697;48.684;9.032;2022-12-18T02:53:33;-3266.80;87.10
37322;DHT22;23697;48.684;9.032;2022-12-18T02:56:07;-3266.70;87.00
37322;DHT22;23697;48.684;9.032;2022-12-18T02:58:44;-3266.70;86.90
37322;DHT22;23697;48.684;9.032;2022-12-18T03:01:16;-3266.70;86.90
37322;DHT22;23697;48.684;9.032;2022-12-18T03:03:50;-3266.70;86.90
37322;DHT22;23697;48.684;9.032;2022-12-18T03:06:22;-3266.70;86.80
37322;DHT22;23697;48.684;9.032;2022-12-18T03:08:54;-3266.60;86.80
37322;DHT22;23697;48.684;9.032;2022-12-18T03:11:23;-3266.70;86.80
37322;DHT22;23697;48.684;9.032;2022-12-18T03:14:06;-3266.70;86.80
37322;DHT22;23697;48.684;9.032;2022-12-18T03:16:36;-3266.70;86.90
37322;DHT22;23697;48.684;9.032;2022-12-18T03:19:06;-3266.70;86.90
37322;DHT22;23697;48.684;9.032;2022-12-18T03:21:43;-3266.60;86.90
37322;DHT22;23697;48.684;9.032;2022-12-18T03:24:12;-3266.70;86.90
37322;DHT22;23697;48.684;9.032;2022-12-18T03:26:42;-3266.70;87.10
37322;DHT22;23697;48.684;9.032;2022-12-18T03:29:16;-3266.70;87.10
37322;DHT22;23697;48.684;9.032;2022-12-18T03:31:48;-3266.70;87.20
37322;DHT22;23697;48.684;9.032;2022-12-18T03:34:19;-3266.70;87.30
37322;DHT22;23697;48.684;9.032;2022-12-18T03:36:48;-3266.80;87.40
37322;DHT22;23697;48.684;9.032;2022-12-18T03:39:15;-3266.80;87.50
37322;DHT22;23697;48.684;9.032;2022-12-18T03:41:45;-3266.70;87.50
37322;DHT22;23697;48.684;9.032;2022-12-18T03:44:20;-3266.70;87.50
37322;DHT22;23697;48.684;9.032;2022-12-18T03:46:55;-3266.70;87.60
37322;DHT22;23697;48.684;9.032;2022-12-18T03:49:28;-3266.70;87.60
37322;DHT22;23697;48.684;9.032;2022-12-18T03:52:05;-3266.70;87.60
37322;DHT22;23697;48.684;9.032;2022-12-18T03:54:34;-3266.60;87.60
37322;DHT22;23697;48.684;9.032;2022-12-18T03:57:05;-3266.60;87.60
37322;DHT22;23697;48.684;9.032;2022-12-18T03:59:35;-3266.50;87.60
37322;DHT22;23697;48.684;9.032;2022-12-18T04:02:04;-3266.50;87.50
37322;DHT22;23697;48.684;9.032;2022-12-18T04:04:34;-3266.40;87.50
37322;DHT22;23697;48.684;9.032;2022-12-18T04:07:02;-3266.30;87.50
37322;DHT22;23697;48.684;9.032;2022-12-18T04:09:30;-3266.30;87.50
37322;DHT22;23697;48.684;9.032;2022-12-18T04:11:57;-3266.20;87.40
37322;DHT22;23697;48.684;9.032;2022-12-18T04:14:24;-3266.30;87.50
37322;DHT22;23697;48.684;9.032;2022-12-18T04:16:51;-3266.20;87.40
37322;DHT22;23697;48.684;9.032;2022-12-18T04:19:19;-3266.20;87.40
37322;DHT22;23697;48.684;9.032;2022-12-18T04:21:46;-3266.30;87.40
37322;DHT22;23697;48.684;9.032;2022-12-18T04:24:13;-3266.20;87.40
37322;DHT22;23697;48.684;9.032;2022-12-18T04:26:39;-3266.10;87.40
37322;DHT22;23697;48.684;9.032;2022-12-18T04:29:06;-3266.10;87.30
37322;DHT22;23697;48.684;9.032;2022-12-18T04:31:33;-3266.10;87.30
37322;DHT22;23697;48.684;9.032;2022-12-18T04:34:00;-3266.10;87.30
37322;DHT22;23697;48.684;9.032;2022-12-18T04:36:28;-3266.10;87.40
37322;DHT22;23697;48.684;9.032;2022-12-18T04:38:56;-3266.10;87.40
37322;DHT22;23697;48.684;9.032;2022-12-18T04:41:22;-3266.10;87.30
37322;DHT22;23697;48.684;9.032;2022-12-18T04:43:49;-3266.10;87.30
37322;DHT22;23697;48.684;9.032;2022-12-18T04:46:16;-3266.10;87.40
37322;DHT22;23697;48.684;9.032;2022-12-18T04:48:45;-3266.10;87.40
37322;DHT22;23697;48.684;9.032;2022-12-18T04:51:13;-3266.10;87.40
37322;DHT22;23697;48.684;9.032;2022-12-18T04:53:41;-3266.20;87.40
37322;DHT22;23697;48.684;9.032;2022-12-18T04:56:09;-3266.10;87.40
37322;DHT22;23697;48.684;9.032;2022-12-18T04:58:37;-3266.10;87.40
37322;DHT22;23697;48.684;9.032;2022-12-18T05:01:05;-3266.10;87.40
37322;DHT22;23697;48.684;9.032;2022-12-18T05:03:33;-3266.00;87.30
37322;DHT22;23697;48.684;9.032;2022-12-18T05:06:00;-3266.00;87.30
37322;DHT22;23697;48.684;9.032;2022-12-18T05:08:27;-3266.00;87.30
37322;DHT22;23697;48.684;9.032;2022-12-18T05:11:00;-3265.90;87.30
37322;DHT22;23697;48.684;9.032;2022-12-18T05:13:27;-3265.90;87.30
37322;DHT22;23697;48.684;9.032;2022-12-18T05:15:54;-3265.90;87.30
37322;DHT22;23697;48.684;9.032;2022-12-18T05:18:21;-3265.90;87.30
37322;DHT22;23697;48.684;9.032;2022-12-18T05:20:49;-3265.90;87.30
37322;DHT22;23697;48.684;9.032;2022-12-18T05:23:16;-3265.80;87.40
37322;DHT22;23697;48.684;9.032;2022-12-18T05:25:46;-3265.90;87.40
37322;DHT22;23697;48.684;9.032;2022-12-18T05:28:14;-3265.90;87.40
37322;DHT22;23697;48.684;9.032;2022-12-18T05:30:41;-3265.90;87.40
37322;DHT22;23697;48.684;9.032;2022-12-18T05:33:07;-3265.90;87.30
37322;DHT22;23697;48.684;9.032;2022-12-18T05:35:34;-3265.90;87.30
37322;DHT22;23697;48.684;9.032;2022-12-18T05:38:01;-3265.80;87.20
37322;DHT22;23697;48.684;9.032;2022-12-18T05:40:28;-3265.80;87.20
37322;DHT22;23697;48.684;9.032;2022-12-18T05:42:55;-3265.70;87.20
37322;DHT22;23697;48.684;9.032;2022-12-18T05:45:23;-3265.70;87.20
37322;DHT22;23697;48.684;9.032;2022-12-18T05:47:50;-3265.70;87.20
37322;DHT22;23697;48.684;9.032;2022-12-18T05:50:16;-3265.70;87.20
37322;DHT22;23697;48.684;9.032;2022-12-18T05:52:43;-3265.60;87.10
37322;DHT22;23697;48.684;9.032;2022-12-18T05:55:10;-3265.50;87.00
37322;DHT22;23697;48.684;9.032;2022-12-18T05:57:37;-3265.50;86.90
37322;DHT22;23697;48.684;9.032;2022-12-18T06:00:04;-3265.50;86.90
37322;DHT22;23697;48.684;9.032;2022-12-18T06:02:33;-3265.50;86.90
37322;DHT22;23697;48.684;9.032;2022-12-18T06:05:00;-3265.50;86.90
37322;DHT22;23697;48.684;9.032;2022-12-18T06:07:27;-3265.50;87.00
37322;DHT22;23697;48.684;9.032;2022-12-18T06:09:54;-3265.60;87.00
37322;DHT22;23697;48.684;9.032;2022-12-18T06:12:21;-3265.60;86.90
37322;DHT22;23697;48.684;9.032;2022-12-18T06:14:47;-3265.60;86.90
37322;DHT22;23697;48.684;9.032;2022-12-18T06:17:14;-3265.70;86.90
37322;DHT22;23697;48.684;9.032;2022-12-18T06:19:42;-3265.70;86.90
37322;DHT22;23697;48.684;9.032;2022-12-18T06:22:09;-3265.70;87.00
37322;DHT22;23697;48.684;9.032;2022-12-18T06:24:36;-3265.80;87.00
37322;DHT22;23697;48.684;9.032;2022-12-18T06:27:03;-3265.80;87.00
37322;DHT22;23697;48.684;9.032;2022-12-18T06:29:30;-3265.80;87.00
37322;DHT22;23697;48.684;9.032;2022-12-18T06:31:56;-3265.80;87.00
37322;DHT22;23697;48.684;9.032;2022-12-18T06:34:23;-3265.80;87.00
37322;DHT22;23697;48.684;9.032;2022-12-18T06:36:52;-3265.80;87.10
37322;DHT22;23697;48.684;9.032;2022-12-18T06:39:19;-3265.80;87.10
37322;DHT22;23697;48.684;9.032;2022-12-18T06:41:45;-3265.80;87.10
37322;DHT22;23697;48.684;9.032;2022-12-18T06:44:12;-3265.70;87.00
37322;DHT22;23697;48.684;9.032;2022-12-18T06:46:39;-3265.60;86.90
37322;DHT22;23697;48.684;9.032;2022-12-18T06:49:06;-3265.60;86.90
37322;DHT22;23697;48.684;9.032;2022-12-18T06:51:34;-3265.70;86.90
37322;DHT22;23697;48.684;9.032;2022-12-18T06:54:03;-3265.70;87.00
37322;DHT22;23697;48.684;9.032;2022-12-18T06:56:30;-3265.70;87.00
37322;DHT22;23697;48.684;9.032;2022-12-18T06:58:57;-3265.80;87.10
37322;DHT22;23697;48.684;9.032;2022-12-18T07:01:23;-3265.80;87.10
37322;DHT22;23697;48.684;9.032;2022-12-18T07:03:52;-3265.80;87.10
37322;DHT22;23697;48.684;9.032;2022-12-18T07:06:21;-3265.80;87.10
37322;DHT22;23697;48.684;9.032;2022-12-18T07:08:49;-3265.80;87.20
37322;DHT22;23697;48.684;9.032;2022-12-18T07:11:18;-3265.80;87.20
37322;DHT22;23697;48.684;9.032;2022-12-18T07:13:45;-3265.90;87.20
37322;DHT22;23697;48.684;9.032;2022-12-18T07:16:15;-3265.90;87.20
37322;DHT22;23697;48.684;9.032;2022-12-18T07:18:42;-3265.90;87.20
37322;DHT22;23697;48.684;9.032;2022-12-18T07:21:17;-3266.00;87.30
37322;DHT22;23697;48.684;9.032;2022-12-18T07:23:44;-3266.00;87.30
37322;DHT22;23697;48.684;9.032;2022-12-18T07:26:14;-3266.00;87.30
37322;DHT22;23697;48.684;9.032;2022-12-18T07:28:43;-3266.00;87.30
37322;DHT22;23697;48.684;9.032;2022-12-18T07:31:12;-3266.10;87.30
37322;DHT22;23697;48.684;9.032;2022-12-18T07:33:39;-3266.20;87.40
37322;DHT22;23697;48.684;9.032;2022-12-18T07:36:07;-3266.20;87.40
37322;DHT22;23697;48.684;9.032;2022-12-18T07:38:35;-3266.30;87.40
37322;DHT22;23697;48.684;9.032;2022-12-18T07:41:02;-3266.30;87.40
37322;DHT22;23697;48.684;9.032;2022-12-18T07:43:29;-3266.40;87.40
37322;DHT22;23697;48.684;9.032;2022-12-18T07:45:58;-3266.50;87.40
37322;DHT22;23697;48.684;9.032;2022-12-18T07:48:25;-3266.60;87.50
37322;DHT22;23697;48.684;9.032;2022-12-18T07:50:52;-3266.60;87.60
37322;DHT22;23697;48.684;9.032;2022-12-18T07:53:19;-3266.70;87.60
37322;DHT22;23697;48.684;9.032;2022-12-18T07:55:46;-3266.80;87.70
37322;DHT22;23697;48.684;9.032;2022-12-18T07:58:12;-3267.20;87.80
37322;DHT22;23697;48.684;9.032;2022-12-18T08:00:39;-3267.60;87.90
37322;DHT22;23697;48.684;9.032;2022-12-18T08:03:07;-3267.90;87.90
37322;DHT22;23697;48.684;9.032;2022-12-18T08:05:34;-3268.00;87.90
37322;DHT22;23697;48.684;9.032;2022-12-18T08:08:01;-3268.10;87.80
37322;DHT22;23697;48.684;9.032;2022-12-18T08:10:28;-3268.00;87.70
37322;DHT22;23697;48.684;9.032;2022-12-18T08:12:54;-3268.10;87.50
37322;DHT22;23697;48.684;9.032;2022-12-18T08:15:21;-3268.10;87.40
37322;DHT22;23697;48.684;9.032;2022-12-18T08:17:48;-3268.10;87.40
37322;DHT22;23697;48.684;9.032;2022-12-18T08:20:17;-3268.20;87.30
37322;DHT22;23697;48.684;9.032;2022-12-18T08:22:44;-3268.30;87.30
37322;DHT22;23697;48.684;9.032;2022-12-18T08:25:11;-3268.40;87.30
37322;DHT22;23697;48.684;9.032;2022-12-18T08:27:37;-3268.50;87.30
37322;DHT22;23697;48.684;9.032;2022-12-18T08:30:05;-3268.60;87.30
37322;DHT22;23697;48.684;9.032;2022-12-18T08:32:32;-3268.70;87.20
37322;DHT22;23697;48.684;9.032;2022-12-18T08:34:59;-3268.80;87.20
37322;DHT22;23697;48.684;9.032;2022-12-18T08:37:27;-3268.90;87.10
37322;DHT22;23697;48.684;9.032;2022-12-18T08:39:54;-3269.00;87.00
37322;DHT22;23697;48.684;9.032;2022-12-18T08:42:21;-3269.10;86.90
37322;DHT22;23697;48.684;9.032;2022-12-18T08:45:06;-3269.30;86.90
37322;DHT22;23697;48.684;9.032;2022-12-18T08:47:33;-3269.50;86.80
37322;DHT22;23697;48.684;9.032;2022-12-18T08:49:59;-3269.60;86.70
37322;DHT22;23697;48.684;9.032;2022-12-18T08:52:28;-3269.80;86.70
37322;DHT22;23697;48.684;9.032;2022-12-18T08:54:54;-3270.00;86.70
37322;DHT22;23697;48.684;9.032;2022-12-18T08:57:21;-3270.20;86.70
37322;DHT22;23697;48.684;9.032;2022-12-18T08:59:48;-3270.50;86.60
37322;DHT22;23697;48.684;9.032;2022-12-18T09:02:15;-3270.70;86.60
37322;DHT22;23697;48.684;9.032;2022-12-18T09:04:42;-3270.90;86.50
37322;DHT22;23697;48.684;9.032;2022-12-18T09:07:08;-3271.20;86.30
37322;DHT22;23697;48.684;9.032;2022-12-18T09:09:37;-3271.50;86.10
37322;DHT22;23697;48.684;9.032;2022-12-18T09:12:04;-3271.70;85.90
37322;DHT22;23697;48.684;9.032;2022-12-18T09:14:30;-3272.00;85.70
37322;DHT22;23697;48.684;9.032;2022-12-18T09:16:57;-3272.30;85.30
37322;DHT22;23697;48.684;9.032;2022-12-18T09:19:24;-3272.60;85.00
37322;DHT22;23697;48.684;9.032;2022-12-18T09:21:51;-3272.80;84.60
37322;DHT22;23697;48.684;9.032;2022-12-18T09:24:18;-3273.00;84.00
37322;DHT22;23697;48.684;9.032;2022-12-18T09:26:46;-3273.20;83.60
37322;DHT22;23697;48.684;9.032;2022-12-18T09:29:13;-3273.30;83.10
37322;DHT22;23697;48.684;9.032;2022-12-18T09:31:41;-3273.40;82.60
37322;DHT22;23697;48.684;9.032;2022-12-18T09:34:07;-3273.50;82.20
37322;DHT22;23697;48.684;9.032;2022-12-18T09:36:34;-3273.50;81.80
37322;DHT22;23697;48.684;9.032;2022-12-18T09:39:01;-3273.60;81.50
37322;DHT22;23697;48.684;9.032;2022-12-18T09:41:41;-3273.80;81.30
37322;DHT22;23697;48.684;9.032;2022-12-18T09:44:26;-3273.90;81.10
37322;DHT22;23697;48.684;9.032;2022-12-18T09:47:10;-3274.00;80.60
37322;DHT22;23697;48.684;9.032;2022-12-18T09:49:41;-3274.20;80.40
37322;DHT22;23697;48.684;9.032;2022-12-18T09:52:13;-3274.20;80.00
37322;DHT22;23697;48.684;9.032;2022-12-18T09:54:42;-3274.30;79.90
37322;DHT22;23697;48.684;9.032;2022-12-18T09:57:14;-3274.40;79.20
37322;DHT22;23697;48.684;9.032;2022-12-18T09:59:48;-3274.40;79.00
37322;DHT22;23697;48.684;9.032;2022-12-18T10:02:17;-3274.50;78.90
37322;DHT22;23697;48.684;9.032;2022-12-18T10:04:50;-3274.60;78.70
37322;DHT22;23697;48.684;9.032;2022-12-18T10:07:26;-3274.80;78.60
37322;DHT22;23697;48.684;9.032;2022-12-18T10:10:01;-3274.80;77.80
37322;DHT22;23697;48.684;9.032;2022-12-18T10:12:35;-3274.90;77.90
37322;DHT22;23697;48.684;9.032;2022-12-18T10:15:12;-3274.90;77.70
37322;DHT22;23697;48.684;9.032;2022-12-18T10:17:46;-3275.10;78.00
37322;DHT22;23697;48.684;9.032;2022-12-18T10:20:20;-3275.20;77.60
37322;DHT22;23697;48.684;9.032;2022-12-18T10:22:55;-3275.20;77.10
37322;DHT22;23697;48.684;9.032;2022-12-18T10:25:26;-3275.30;76.90
37322;DHT22;23697;48.684;9.032;2022-12-18T10:27:58;-3275.30;77.00
37322;DHT22;23697;48.684;9.032;2022-12-18T10:30:28;-3275.30;76.70
37322;DHT22;23697;48.684;9.032;2022-12-18T10:33:00;-3275.50;76.70
37322;DHT22;23697;48.684;9.032;2022-12-18T10:35:27;-3275.60;76.00
37322;DHT22;23697;48.684;9.032;2022-12-18T10:38:06;-3275.80;76.10
37322;DHT22;23697;48.684;9.032;2022-12-18T10:40:48;-3276.00;76.10
37322;DHT22;23697;48.684;9.032;2022-12-18T10:43:19;-3275.80;75.10
37322;DHT22;23697;48.684;9.032;2022-12-18T10:46:02;-3275.90;75.00
37322;DHT22;23697;48.684;9.032;2022-12-18T10:48:32;-3276.00;75.10
37322;DHT22;23697;48.684;9.032;2022-12-18T10:51:00;-3275.90;74.90
37322;DHT22;23697;48.684;9.032;2022-12-18T10:53:28;-3275.90;74.80
37322;DHT22;23697;48.684;9.032;2022-12-18T10:55:58;-3275.80;74.60
37322;DHT22;23697;48.684;9.032;2022-12-18T10:58:28;-3275.80;74.60
37322;DHT22;23697;48.684;9.032;2022-12-18T11:01:10;-3275.80;75.00
37322;DHT22;23697;48.684;9.032;2022-12-18T11:03:39;-3275.80;75.00
37322;DHT22;23697;48.684;9.032;2022-12-18T11:06:08;-3275.80;75.00
37322;DHT22;23697;48.684;9.032;2022-12-18T11:08:35;-3275.80;75.10
37322;DHT22;23697;48.684;9.032;2022-12-18T11:11:06;-3276.00;75.30
37322;DHT22;23697;48.684;9.032;2022-12-18T11:13:34;-3276.20;74.90
37322;DHT22;23697;48.684;9.032;2022-12-18T11:16:01;-3276.10;74.30
37322;DHT22;23697;48.684;9.032;2022-12-18T11:18:31;-3276.10;74.40
37322;DHT22;23697;48.684;9.032;2022-12-18T11:21:05;-3276.00;74.20
37322;DHT22;23697;48.684;9.032;2022-12-18T11:23:34;-3276.00;74.00
37322;DHT22;23697;48.684;9.032;2022-12-18T11:26:02;-3275.90;73.70
37322;DHT22;23697;48.684;9.032;2022-12-18T11:28:35;-3275.90;74.50
37322;DHT22;23697;48.684;9.032;2022-12-18T11:31:25;-3275.90;74.60
37322;DHT22;23697;48.684;9.032;2022-12-18T11:34:04;-3276.00;74.40
37322;DHT22;23697;48.684;9.032;2022-12-18T11:36:37;-3275.90;74.50
37322;DHT22;23697;48.684;9.032;2022-12-18T11:39:11;-3275.90;74.50
37322;DHT22;23697;48.684;9.032;2022-12-18T11:41:42;-3275.80;74.10
37322;DHT22;23697;48.684;9.032;2022-12-18T11:44:32;-3275.80;74.80
37322;DHT22;23697;48.684;9.032;2022-12-18T11:47:09;-3275.80;74.60
37322;DHT22;23697;48.684;9.032;2022-12-18T11:49:41;-3275.90;74.70
37322;DHT22;23697;48.684;9.032;2022-12-18T11:52:13;-3275.90;74.90
37322;DHT22;23697;48.684;9.032;2022-12-18T11:54:42;-3275.80;75.10
37322;DHT22;23697;48.684;9.032;2022-12-18T11:57:15;-3275.90;74.80
37322;DHT22;23697;48.684;9.032;2022-12-18T11:59:52;-3275.80;75.00
37322;DHT22;23697;48.684;9.032;2022-12-18T12:02:40;-3275.80;75.30
37322;DHT22;23697;48.684;9.032;2022-12-18T12:05:25;-3275.80;75.00
37322;DHT22;23697;48.684;9.032;2022-12-18T12:07:58;-3275.70;74.80
37322;DHT22;23697;48.684;9.032;2022-12-18T12:10:38;-3275.70;75.10
37322;DHT22;23697;48.684;9.032;2022-12-18T12:13:21;-3275.60;75.50
37322;DHT22;23697;48.684;9.032;2022-12-18T12:15:58;-3275.60;75.50
37322;DHT22;23697;48.684;9.032;2022-12-18T12:18:34;-3275.50;75.90
37322;DHT22;23697;48.684;9.032;2022-12-18T12:21:11;-3275.50;75.70
37322;DHT22;23697;48.684;9.032;2022-12-18T12:23:44;-3275.50;76.00
37322;DHT22;23697;48.684;9.032;2022-12-18T12:26:20;-3275.60;76.10
37322;DHT22;23697;48.684;9.032;2022-12-18T12:29:00;-3275.50;75.80
37322;DHT22;23697;48.684;9.032;2022-12-18T12:31:39;-3275.50;75.90
37322;DHT22;23697;48.684;9.032;2022-12-18T12:34:16;-3275.50;76.10
37322;DHT22;23697;48.684;9.032;2022-12-18T12:36:54;-3275.60;76.30
37322;DHT22;23697;48.684;9.032;2022-12-18T12:39:29;-3275.50;76.30
37322;DHT22;23697;48.684;9.032;2022-12-18T12:41:57;-3275.50;76.30
37322;DHT22;23697;48.684;9.032;2022-12-18T12:44:44;-3275.60;76.30
37322;DHT22;23697;48.684;9.032;2022-12-18T12:50:24;-3275.60;76.30
37322;DHT22;23697;48.684;9.032;2022-12-18T12:52:55;-3275.60;76.20
37322;DHT22;23697;48.684;9.032;2022-12-18T12:55:24;-3275.70;76.40
37322;DHT22;23697;48.684;9.032;2022-12-18T12:57:59;-3275.70;76.50
37322;DHT22;23697;48.684;9.032;2022-12-18T13:00:37;-3275.60;76.80
37322;DHT22;23697;48.684;9.032;2022-12-18T13:03:13;-3275.60;76.80
37322;DHT22;23697;48.684;9.032;2022-12-18T13:05:48;-3275.50;76.90
37322;DHT22;23697;48.684;9.032;2022-12-18T13:08:24;-3275.60;77.30
37322;DHT22;23697;48.684;9.032;2022-12-18T13:10:52;-3275.50;77.30
37322;DHT22;23697;48.684;9.032;2022-12-18T13:13:50;-3275.60;77.60
37322;DHT22;23697;48.684;9.032;2022-12-18T13:16:19;-3275.60;77.70
37322;DHT22;23697;48.684;9.032;2022-12-18T13:18:54;-3275.60;77.80
37322;DHT22;23697;48.684;9.032;2022-12-18T13:21:27;-3275.60;77.70
37322;DHT22;23697;48.684;9.032;2022-12-18T13:24:15;-3275.60;77.80
37322;DHT22;23697;48.684;9.032;2022-12-18T13:27:45;-3275.60;77.80
37322;DHT22;23697;48.684;9.032;2022-12-18T13:33:41;-3275.60;78.20
37322;DHT22;23697;48.684;9.032;2022-12-18T13:36:30;-3275.60;78.50
37322;DHT22;23697;48.684;9.032;2022-12-18T13:39:34;-3275.50;78.60
37322;DHT22;23697;48.684;9.032;2022-12-18T13:42:38;-3275.60;78.70
37322;DHT22;23697;48.684;9.032;2022-12-18T13:45:37;-3275.40;79.00
37322;DHT22;23697;48.684;9.032;2022-12-18T13:48:04;-3275.40;79.20
37322;DHT22;23697;48.684;9.032;2022-12-18T13:50:33;-3275.40;79.20
37322;DHT22;23697;48.684;9.032;2022-12-18T13:53:03;-3275.30;79.30
37322;DHT22;23697;48.684;9.032;2022-12-18T13:55:32;-3275.20;79.60
37322;DHT22;23697;48.684;9.032;2022-12-18T13:58:04;-3275.20;79.80
37322;DHT22;23697;48.684;9.032;2022-12-18T14:00:31;-3275.10;80.10
37322;DHT22;23697;48.684;9.032;2022-12-18T14:02:59;-3275.10;80.30
37322;DHT22;23697;48.684;9.032;2022-12-18T14:05:27;-3275.00;80.10
37322;DHT22;23697;48.684;9.032;2022-12-18T14:07:55;-3274.90;80.40
37322;DHT22;23697;48.684;9.032;2022-12-18T14:10:26;-3274.80;80.80
37322;DHT22;23697;48.684;9.032;2022-12-18T14:12:55;-3274.70;81.10
37322;DHT22;23697;48.684;9.032;2022-12-18T14:15:31;-3274.60;81.20
37322;DHT22;23697;48.684;9.032;2022-12-18T14:18:00;-3274.50;81.30
37322;DHT22;23697;48.684;9.032;2022-12-18T14:20:30;-3274.40;81.50
37322;DHT22;23697;48.684;9.032;2022-12-18T14:22:58;-3274.30;81.70
37322;DHT22;23697;48.684;9.032;2022-12-18T14:25:26;-3274.30;82.00
37322;DHT22;23697;48.684;9.032;2022-12-18T14:28:12;-3274.30;82.20
37322;DHT22;23697;48.684;9.032;2022-12-18T14:30:42;-3274.20;82.40
37322;DHT22;23697;48.684;9.032;2022-12-18T14:33:10;-3274.20;82.60
37322;DHT22;23697;48.684;9.032;2022-12-18T14:35:40;-3274.10;82.70
37322;DHT22;23697;48.684;9.032;2022-12-18T14:38:21;-3274.10;82.80
37322;DHT22;23697;48.684;9.032;2022-12-18T14:40:52;-3274.10;82.90
37322;DHT22;23697;48.684;9.032;2022-12-18T14:43:21;-3274.00;83.00
37322;DHT22;23697;48.684;9.032;2022-12-18T14:45:49;-3273.80;83.20
37322;DHT22;23697;48.684;9.032;2022-12-18T14:48:20;-3273.80;83.40
37322;DHT22;23697;48.684;9.032;2022-12-18T14:50:56;-3273.80;83.60
37322;DHT22;23697;48.684;9.032;2022-12-18T14:53:31;-3273.80;83.70
37322;DHT22;23697;48.684;9.032;2022-12-18T14:55:58;-3273.60;83.90
37322;DHT22;23697;48.684;9.032;2022-12-18T14:58:28;-3273.50;84.10
37322;DHT22;23697;48.684;9.032;2022-12-18T15:00:54;-3273.50;84.40
37322;DHT22;23697;48.684;9.032;2022-12-18T15:03:21;-3273.40;84.50
37322;DHT22;23697;48.684;9.032;2022-12-18T15:05:48;-3273.30;84.60
37322;DHT22;23697;48.684;9.032;2022-12-18T15:08:29;-3273.30;84.70
37322;DHT22;23697;48.684;9.032;2022-12-18T15:10:56;-3273.20;84.80
37322;DHT22;23697;48.684;9.032;2022-12-18T15:13:24;-3273.10;85.00
37322;DHT22;23697;48.684;9.032;2022-12-18T15:15:53;-3273.10;85.10
37322;DHT22;23697;48.684;9.032;2022-12-18T15:18:23;-3273.00;85.20